createdAt,value
2017-12-15T00:00:50.029Z,95.00
2017-12-15T00:03:27.390Z,95.00
2017-12-15T00:06:03.997Z,95.00
2017-12-15T00:08:40.058Z,94.80
2017-12-15T00:11:13.128Z,94.80
2017-12-15T00:13:44.158Z,94.90
2017-12-15T00:16:17.454Z,94.90
2017-12-15T00:18:54.452Z,94.90
2017-12-15T00:21:24.967Z,94.80
2017-12-15T00:23:58.228Z,94.80
2017-12-15T00:26:34.186Z,95.00
2017-12-15T00:29:04.001Z,95.00
2017-12-15T00:31:57.981Z,95.00
2017-12-15T00:34:37.783Z,96.10
2017-12-15T00:37:13.518Z,95.40
2017-12-15T00:39:46.452Z,95.20
2017-12-15T00:42:19.564Z,95.00
2017-12-15T00:44:53.403Z,95.30
2017-12-15T00:47:23.854Z,95.10
2017-12-15T00:49:53.644Z,95.10
2017-12-15T00:52:25.460Z,95.20
2017-12-15T00:55:00.628Z,95.10
2017-12-15T00:57:31.474Z,95.20
2017-12-15T01:00:03.959Z,95.90
2017-12-15T01:02:39.411Z,95.60
2017-12-15T01:05:16.506Z,95.50
2017-12-15T01:07:56.690Z,95.30
2017-12-15T01:10:31.409Z,95.30
2017-12-15T01:16:23.121Z,95.30
2017-12-15T01:18:54.395Z,95.20
2017-12-15T01:21:35.102Z,95.20
2017-12-15T01:24:10.900Z,95.20
2017-12-15T01:30:25.771Z,95.20
2017-12-15T01:33:35.320Z,95.50
2017-12-15T01:36:05.131Z,95.60
2017-12-15T01:38:38.479Z,95.60
2017-12-15T01:41:11.970Z,95.60
2017-12-15T01:47:33.433Z,95.80
2017-12-15T01:50:06.308Z,96.80
2017-12-15T01:52:44.820Z,96.10
2017-12-15T01:55:22.217Z,96.30
2017-12-15T02:05:17.608Z,96.20
2017-12-15T02:07:49.202Z,96.80
2017-12-15T02:10:25.624Z,96.30
2017-12-15T02:12:59.225Z,96.50
2017-12-15T02:15:33.918Z,96.60
2017-12-15T02:18:10.944Z,96.50
2017-12-15T02:20:41.299Z,96.10
2017-12-15T02:23:16.198Z,96.20
2017-12-15T02:25:51.180Z,95.90
2017-12-15T02:31:47.568Z,95.80
2017-12-15T02:34:39.465Z,95.40
2017-12-15T02:37:10.677Z,95.00
2017-12-15T02:39:40.472Z,94.90
2017-12-15T02:42:13.809Z,95.00
2017-12-15T02:48:09.133Z,94.80
2017-12-15T02:50:44.787Z,94.80
2017-12-15T02:53:19.995Z,94.40
2017-12-15T02:56:00.672Z,94.40
2017-12-15T02:58:38.562Z,94.60
2017-12-15T03:01:10.953Z,94.60
2017-12-15T03:03:42.278Z,94.40
2017-12-15T03:06:13.792Z,94.50
2017-12-15T03:08:43.849Z,94.30
2017-12-15T03:11:14.206Z,94.20
2017-12-15T03:14:09.829Z,94.00
2017-12-15T03:16:43.238Z,94.10
2017-12-15T03:19:17.195Z,93.90
2017-12-15T03:21:46.984Z,93.60
2017-12-15T03:24:26.780Z,93.50
2017-12-15T03:27:01.951Z,93.50
2017-12-15T03:29:38.045Z,93.50
2017-12-15T03:32:11.323Z,93.40
2017-12-15T03:34:45.455Z,93.30
2017-12-15T03:37:18.678Z,93.30
2017-12-15T03:39:54.790Z,93.50
2017-12-15T03:42:28.745Z,93.40
2017-12-15T03:48:26.227Z,93.30
2017-12-15T03:51:00.287Z,93.30
2017-12-15T03:53:34.655Z,93.40
2017-12-15T03:56:09.199Z,93.20
2017-12-15T03:59:18.511Z,93.30
2017-12-15T04:01:52.880Z,93.50
2017-12-15T04:04:22.006Z,93.40
2017-12-15T04:06:57.549Z,93.50
2017-12-15T04:09:33.037Z,93.50
2017-12-15T04:12:10.435Z,93.60
2017-12-15T04:18:44.821Z,93.30
2017-12-15T04:21:15.904Z,93.30
2017-12-15T04:23:52.534Z,93.50
2017-12-15T04:26:21.881Z,93.20
2017-12-15T04:28:54.284Z,93.00
2017-12-15T04:31:27.072Z,92.90
2017-12-15T04:33:59.340Z,92.90
2017-12-15T04:36:33.237Z,93.10
2017-12-15T04:39:08.217Z,93.60
2017-12-15T04:41:43.632Z,93.90
2017-12-15T04:44:36.323Z,94.20
2017-12-15T04:47:08.502Z,94.50
2017-12-15T04:49:39.984Z,94.50
2017-12-15T04:52:12.755Z,94.60
2017-12-15T04:54:42.824Z,94.60
2017-12-15T04:57:19.226Z,94.60
2017-12-15T05:03:12.605Z,94.50
2017-12-15T05:05:44.793Z,94.90
2017-12-15T05:08:19.497Z,94.90
2017-12-15T05:10:51.001Z,95.30
2017-12-15T05:13:26.825Z,95.30
2017-12-15T05:15:58.646Z,95.30
2017-12-15T05:18:30.138Z,95.20
2017-12-15T05:21:04.608Z,95.30
2017-12-15T05:23:34.686Z,95.30
2017-12-15T05:26:08.457Z,95.30
2017-12-15T05:28:42.487Z,95.40
2017-12-15T05:31:43.567Z,95.60
2017-12-15T05:34:17.027Z,95.70
2017-12-15T05:39:41.436Z,95.60
2017-12-15T05:42:11.831Z,95.60
2017-12-15T05:44:45.107Z,95.60
2017-12-15T05:54:37.770Z,96.00
2017-12-15T05:57:07.516Z,96.10
2017-12-15T05:59:41.276Z,96.10
2017-12-15T06:02:12.000Z,96.50
2017-12-15T06:04:44.573Z,96.50
2017-12-15T06:07:14.566Z,96.60
2017-12-15T06:09:47.776Z,96.70
2017-12-15T06:12:17.786Z,96.60
2017-12-15T06:14:52.477Z,96.80
2017-12-15T06:27:30.960Z,97.00
2017-12-15T06:30:01.380Z,97.10
2017-12-15T06:32:32.976Z,97.40
2017-12-15T06:35:05.981Z,97.60
2017-12-15T06:37:39.680Z,97.30
2017-12-15T06:40:14.157Z,97.40
2017-12-15T06:42:45.357Z,97.50
2017-12-15T06:45:16.580Z,97.50
2017-12-15T06:48:07.703Z,97.60
2017-12-15T06:50:42.558Z,97.70
2017-12-15T06:53:19.534Z,97.80
2017-12-15T06:55:51.630Z,98.10
2017-12-15T06:58:35.197Z,98.20
2017-12-15T07:01:13.914Z,98.30
2017-12-15T07:10:53.748Z,98.60
2017-12-15T07:13:26.177Z,98.80
2017-12-15T07:15:56.922Z,99.50
2017-12-15T07:25:38.432Z,96.80
2017-12-15T07:28:12.902Z,95.70
2017-12-15T07:30:46.903Z,95.70
2017-12-15T07:33:24.042Z,95.60
2017-12-15T07:35:57.673Z,95.50
2017-12-15T07:38:34.900Z,95.50
2017-12-15T07:41:07.242Z,95.20
2017-12-15T07:43:40.541Z,95.30
2017-12-15T07:46:17.073Z,95.30
2017-12-15T07:48:52.276Z,95.30
2017-12-15T07:51:27.063Z,95.40
2017-12-15T07:53:58.938Z,95.50
2017-12-15T07:56:29.985Z,95.50
2017-12-15T07:59:01.230Z,95.60
2017-12-15T08:01:32.318Z,95.30
2017-12-15T08:04:10.241Z,95.50
2017-12-15T08:06:42.413Z,95.20
2017-12-15T08:09:13.669Z,95.30
2017-12-15T08:11:47.226Z,95.40
2017-12-15T08:14:19.776Z,95.10
2017-12-15T08:16:52.624Z,95.20
2017-12-15T08:22:49.419Z,95.40
2017-12-15T08:25:20.904Z,95.30
2017-12-15T08:27:52.967Z,95.30
2017-12-15T08:30:24.596Z,95.20
2017-12-15T08:36:34.874Z,95.00
2017-12-15T08:39:09.063Z,95.00
2017-12-15T08:41:39.313Z,95.30
2017-12-15T08:44:11.335Z,95.10
2017-12-15T08:46:42.494Z,94.90
2017-12-15T08:49:15.844Z,94.90
2017-12-15T08:51:47.074Z,94.90
2017-12-15T08:54:18.276Z,94.90
2017-12-15T08:56:48.542Z,94.80
2017-12-15T08:59:21.937Z,94.60
2017-12-15T09:01:54.922Z,94.70
2017-12-15T09:04:28.312Z,94.70
2017-12-15T09:07:01.250Z,94.40
2017-12-15T09:09:34.315Z,94.40
2017-12-15T09:12:07.844Z,94.80
2017-12-15T09:14:42.501Z,94.30
2017-12-15T09:17:15.973Z,94.20
2017-12-15T09:19:51.905Z,94.00
2017-12-15T09:22:24.290Z,93.90
2017-12-15T09:24:57.727Z,94.10
2017-12-15T09:27:29.742Z,93.90
2017-12-15T09:30:03.551Z,93.70
2017-12-15T09:32:37.410Z,94.10
2017-12-15T09:42:19.259Z,93.90
2017-12-15T09:44:53.014Z,93.60
2017-12-15T09:47:25.404Z,93.60
2017-12-15T09:50:17.618Z,93.20
2017-12-15T09:52:51.410Z,93.70
2017-12-15T09:55:29.256Z,93.50
2017-12-15T09:58:02.071Z,93.60
2017-12-15T10:00:37.575Z,93.20
2017-12-15T10:03:13.644Z,93.20
2017-12-15T10:05:49.637Z,93.00
2017-12-15T10:08:25.903Z,92.80
2017-12-15T10:10:58.012Z,92.90
2017-12-15T10:13:27.733Z,92.60
2017-12-15T10:16:02.341Z,92.50
2017-12-15T10:18:35.918Z,92.80
2017-12-15T10:21:11.401Z,92.90
2017-12-15T10:23:44.629Z,92.60
2017-12-15T10:26:14.265Z,92.50
2017-12-15T10:28:44.797Z,92.50
2017-12-15T10:31:14.897Z,92.50
2017-12-15T10:33:44.962Z,92.30
2017-12-15T10:36:36.546Z,92.80
2017-12-15T10:39:05.951Z,92.50
2017-12-15T10:41:53.123Z,92.60
2017-12-15T10:44:23.462Z,92.60
2017-12-15T10:46:54.678Z,92.70
2017-12-15T10:49:24.973Z,92.40
2017-12-15T10:51:54.116Z,92.50
2017-12-15T10:54:23.550Z,92.40
2017-12-15T10:56:55.215Z,92.20
2017-12-15T10:59:26.725Z,91.80
2017-12-15T11:02:12.729Z,91.30
2017-12-15T11:04:43.657Z,91.30
2017-12-15T11:10:57.424Z,91.40
2017-12-15T11:13:28.559Z,91.20
2017-12-15T11:16:04.095Z,91.40
2017-12-15T11:18:34.733Z,91.00
2017-12-15T11:21:44.207Z,90.80
2017-12-15T11:24:14.815Z,90.60
2017-12-15T11:26:44.114Z,90.90
2017-12-15T11:29:14.028Z,90.40
2017-12-15T11:31:43.301Z,90.60
2017-12-15T11:34:17.430Z,90.60
2017-12-15T11:36:55.964Z,90.00
2017-12-15T11:39:28.411Z,90.00
2017-12-15T11:41:56.786Z,88.50
2017-12-15T11:44:26.588Z,88.90
2017-12-15T11:46:57.871Z,89.50
2017-12-15T11:49:27.372Z,89.50
2017-12-15T11:52:35.814Z,88.90
2017-12-15T11:55:09.353Z,88.10
2017-12-15T11:57:45.046Z,88.60
2017-12-15T12:00:17.541Z,88.30
2017-12-15T12:03:12.903Z,88.60
2017-12-15T12:05:42.911Z,88.30
2017-12-15T12:11:39.327Z,87.40
2017-12-15T12:14:11.523Z,87.90
2017-12-15T12:16:44.471Z,86.40
2017-12-15T12:19:18.966Z,85.60
2017-12-15T12:21:49.902Z,84.10
2017-12-15T12:24:20.377Z,85.70
2017-12-15T12:26:48.758Z,84.90
2017-12-15T12:29:22.006Z,85.70
2017-12-15T12:31:55.818Z,84.80
2017-12-15T12:34:30.323Z,85.70
2017-12-15T12:50:29.139Z,84.80
2017-12-15T12:53:03.974Z,85.00
2017-12-15T12:55:38.175Z,84.40
2017-12-15T12:58:12.816Z,84.50
2017-12-15T13:00:43.906Z,85.00
2017-12-15T13:03:16.539Z,84.60
2017-12-15T13:05:47.634Z,83.90
2017-12-15T13:11:39.270Z,84.40
2017-12-15T13:14:09.568Z,84.50
2017-12-15T13:16:41.824Z,84.00
2017-12-15T13:19:12.787Z,84.70
2017-12-15T13:21:43.962Z,85.00
2017-12-15T13:34:24.480Z,84.40
2017-12-15T13:36:59.006Z,83.80
2017-12-15T13:39:28.457Z,85.50
2017-12-15T13:41:59.543Z,84.00
2017-12-15T13:48:18.228Z,85.20
2017-12-15T13:50:48.810Z,85.70
2017-12-15T13:53:21.420Z,85.00
2017-12-15T13:55:52.451Z,84.10
2017-12-15T13:58:27.431Z,84.60
2017-12-15T14:01:03.308Z,82.60
2017-12-15T14:03:35.068Z,82.50
2017-12-15T14:06:09.807Z,82.70
2017-12-15T14:15:24.845Z,81.80
2017-12-15T14:17:55.198Z,82.10
2017-12-15T14:20:25.612Z,82.80
2017-12-15T14:26:19.299Z,82.90
2017-12-15T14:28:54.199Z,82.60
2017-12-15T14:31:26.425Z,83.00
2017-12-15T14:33:57.203Z,83.50
2017-12-15T14:36:29.269Z,83.40
2017-12-15T14:39:41.309Z,84.00
2017-12-15T14:42:16.262Z,84.10
2017-12-15T14:44:46.169Z,83.90
2017-12-15T14:47:18.910Z,83.00
2017-12-15T14:49:47.478Z,83.00
2017-12-15T14:52:18.195Z,83.50
2017-12-15T14:54:47.108Z,83.60
2017-12-15T14:57:15.755Z,83.80
2017-12-15T14:59:46.020Z,84.60
2017-12-15T15:02:14.381Z,83.90
2017-12-15T15:04:43.927Z,84.20
2017-12-15T15:07:17.575Z,84.30
2017-12-15T15:10:25.857Z,84.30
2017-12-15T15:12:55.155Z,84.70
2017-12-15T15:15:24.311Z,84.50
2017-12-15T15:17:53.942Z,83.40
2017-12-15T15:20:24.004Z,84.60
2017-12-15T15:22:54.616Z,84.30
2017-12-15T15:25:29.026Z,84.90
2017-12-15T15:28:00.938Z,84.80
2017-12-15T15:30:32.471Z,84.10
2017-12-15T15:33:03.019Z,84.10
2017-12-15T15:35:35.553Z,84.60
2017-12-15T15:38:05.584Z,84.70
2017-12-15T15:44:16.366Z,84.40
2017-12-15T15:46:54.334Z,85.30
2017-12-15T15:49:25.688Z,85.90
2017-12-15T15:51:58.337Z,85.90
2017-12-15T15:54:29.626Z,85.80
2017-12-15T15:57:01.045Z,86.30
2017-12-15T15:59:32.270Z,85.90
2017-12-15T16:02:05.306Z,86.00
2017-12-15T16:04:37.168Z,86.00
2017-12-15T16:07:14.897Z,86.30
2017-12-15T16:09:50.313Z,86.30
2017-12-15T16:12:22.683Z,87.20
2017-12-15T16:14:53.329Z,87.20
2017-12-15T16:17:26.314Z,86.90
2017-12-15T16:20:02.968Z,86.50
2017-12-15T16:22:35.761Z,86.40
2017-12-15T16:28:46.138Z,86.80
2017-12-15T16:31:18.657Z,86.80
2017-12-15T16:33:49.722Z,86.90
2017-12-15T16:36:22.175Z,87.10
2017-12-15T16:38:55.406Z,86.90
2017-12-15T16:41:26.481Z,86.70
2017-12-15T16:43:56.156Z,86.90
2017-12-15T16:46:28.536Z,86.40
2017-12-15T16:49:03.726Z,86.00
2017-12-15T16:51:32.917Z,86.40
2017-12-15T16:54:07.556Z,86.10
2017-12-15T17:03:24.913Z,87.00
2017-12-15T17:05:59.303Z,87.30
2017-12-15T17:08:33.246Z,86.80
2017-12-15T17:11:07.425Z,86.80
2017-12-15T17:13:40.609Z,86.60
2017-12-15T17:16:13.397Z,86.40
2017-12-15T17:18:46.567Z,86.60
2017-12-15T17:21:15.346Z,87.00
2017-12-15T17:23:43.794Z,86.30
2017-12-15T17:26:30.792Z,87.10
2017-12-15T17:28:59.202Z,86.80
2017-12-15T17:31:30.816Z,87.50
2017-12-15T17:34:01.438Z,88.00
2017-12-15T17:36:31.346Z,88.40
2017-12-15T17:39:01.019Z,87.80
2017-12-15T17:42:11.003Z,88.60
2017-12-15T17:44:41.839Z,89.30
2017-12-15T18:03:23.768Z,89.30
2017-12-15T18:05:54.026Z,88.90
2017-12-15T18:08:24.478Z,88.60
2017-12-15T18:10:55.473Z,89.00
2017-12-15T18:13:27.852Z,88.40
2017-12-15T18:16:02.300Z,88.40
2017-12-15T18:18:34.713Z,88.10
2017-12-15T18:21:05.016Z,88.00
2017-12-15T18:23:35.584Z,87.60
2017-12-15T18:36:32.268Z,87.20
2017-12-15T18:39:02.772Z,87.30
2017-12-15T18:41:57.317Z,87.30
2017-12-15T18:44:26.242Z,86.90
2017-12-15T18:46:57.004Z,86.90
2017-12-15T18:49:27.650Z,87.00
2017-12-15T18:51:57.974Z,87.20
2017-12-15T18:54:29.480Z,87.00
2017-12-15T18:57:00.712Z,86.50
2017-12-15T18:59:32.190Z,86.50
2017-12-15T19:02:04.601Z,87.30
2017-12-15T19:04:37.378Z,87.20
2017-12-15T19:07:09.352Z,87.20
2017-12-15T19:09:40.668Z,87.20
2017-12-15T19:12:15.688Z,87.30
2017-12-15T19:14:46.315Z,87.40
2017-12-15T19:17:17.804Z,87.50
2017-12-15T19:19:52.230Z,88.30
2017-12-15T19:22:25.724Z,87.80
2017-12-15T19:24:57.746Z,87.90
2017-12-15T19:27:30.703Z,87.30
2017-12-15T19:30:04.714Z,87.90
2017-12-15T19:32:37.575Z,87.80
2017-12-15T19:35:09.265Z,88.20
2017-12-15T19:37:42.044Z,88.60
2017-12-15T19:40:14.493Z,88.20
2017-12-15T19:42:45.291Z,88.00
2017-12-15T19:45:16.198Z,88.50
2017-12-15T19:47:46.572Z,88.70
2017-12-15T19:50:18.428Z,88.60
2017-12-15T19:52:51.058Z,88.20
2017-12-15T19:55:25.432Z,88.50
2017-12-15T19:58:19.706Z,88.60
2017-12-15T20:00:51.627Z,88.70
2017-12-15T20:03:22.957Z,88.80
2017-12-15T20:05:54.598Z,88.70
2017-12-15T20:08:27.614Z,89.00
2017-12-15T20:10:57.459Z,88.50
2017-12-15T20:17:08.176Z,89.20
2017-12-15T20:19:39.683Z,88.80
2017-12-15T20:22:11.583Z,89.10
2017-12-15T20:24:52.012Z,89.20
2017-12-15T20:27:40.358Z,89.30
2017-12-15T20:30:18.672Z,88.90
2017-12-15T20:32:48.442Z,88.90
2017-12-15T20:35:19.002Z,88.40
2017-12-15T20:37:55.380Z,89.80
2017-12-15T20:40:27.746Z,89.10
2017-12-15T20:43:00.038Z,89.20
2017-12-15T20:46:13.103Z,89.10
2017-12-15T20:48:42.128Z,89.40
2017-12-15T20:51:11.766Z,89.30
2017-12-15T20:53:43.932Z,89.30
2017-12-15T20:56:16.227Z,89.00
2017-12-15T21:05:47.801Z,89.10
2017-12-15T21:08:18.467Z,89.00
2017-12-15T21:10:53.696Z,88.80
2017-12-15T21:13:26.438Z,88.80
2017-12-15T21:15:59.276Z,88.80
2017-12-15T21:18:34.873Z,89.10
2017-12-15T21:21:04.527Z,89.00
2017-12-15T21:23:32.967Z,89.10
2017-12-15T21:26:02.013Z,89.60
2017-12-15T21:28:32.841Z,90.00
2017-12-15T21:31:14.854Z,89.90
2017-12-15T21:33:44.963Z,89.90
2017-12-15T21:36:14.806Z,89.80
2017-12-15T21:38:43.505Z,89.70
2017-12-15T21:41:14.873Z,89.70
2017-12-15T21:43:51.325Z,89.70
2017-12-15T21:46:27.020Z,89.70
2017-12-15T21:49:00.819Z,89.90
2017-12-15T21:51:36.496Z,89.80
2017-12-15T21:54:10.023Z,90.00
2017-12-15T21:56:43.549Z,90.30
2017-12-15T22:06:15.859Z,89.90
2017-12-15T22:08:46.416Z,89.80
2017-12-15T22:11:24.304Z,89.70
2017-12-15T22:14:00.029Z,89.80
2017-12-15T22:16:32.524Z,89.50
2017-12-15T22:19:06.598Z,89.50
2017-12-15T22:21:37.591Z,89.30
2017-12-15T22:24:10.346Z,89.30
2017-12-15T22:26:45.142Z,89.70
2017-12-15T22:29:16.704Z,90.00
2017-12-15T22:32:29.274Z,90.00
2017-12-15T22:37:40.548Z,89.70
2017-12-15T22:40:13.152Z,90.00
2017-12-15T22:42:42.487Z,90.30
2017-12-15T22:45:10.864Z,90.20
2017-12-15T22:47:42.506Z,90.10
2017-12-15T22:50:19.713Z,90.20
2017-12-15T22:52:49.082Z,90.50
2017-12-15T22:55:18.170Z,90.40
2017-12-15T22:57:46.785Z,90.40
2017-12-15T23:00:21.332Z,90.40
2017-12-15T23:02:52.672Z,90.70
2017-12-15T23:05:27.558Z,90.60
2017-12-15T23:08:01.233Z,90.60
2017-12-15T23:10:35.245Z,90.70
2017-12-15T23:13:08.548Z,90.70
2017-12-15T23:15:42.570Z,90.60
2017-12-15T23:18:12.736Z,90.40
2017-12-15T23:20:43.296Z,90.60
2017-12-15T23:23:14.106Z,90.60
2017-12-15T23:25:49.955Z,90.80
2017-12-15T23:28:25.096Z,90.20
2017-12-15T23:31:36.967Z,90.40
2017-12-15T23:34:08.669Z,90.50
2017-12-15T23:36:40.326Z,90.80
2017-12-15T23:39:18.685Z,90.90
2017-12-15T23:41:54.954Z,91.00
2017-12-15T23:44:28.103Z,91.20
2017-12-15T23:47:38.184Z,91.20
2017-12-15T23:50:09.152Z,91.10
2017-12-15T23:52:42.862Z,91.20
2017-12-15T23:55:29.536Z,91.30
2017-12-15T23:58:05.616Z,91.50
